Etusivu
METAR-TAF:

METAR-TAF

Lentoasemat :

Örnsköldsvik, Ruotsi

Örnsköldsvikin lentoasema

Leveyspiiri: 63-24N, Pituuspiiri: 018-58E, korkeus merenpinnasta: 103 m

Tämänhetkinen sää

Tämä raportti tehtiin 39 minuuttia sitten, kello 14.20 UTC
Tuuli 6 kn etelästä/lounaasta
Lämpötila 2°C
Kosteus 100%
Ilmanpaine 994 hPa
Näkyvyys 10 km tai enemmän
Hajanaisia pilviä 1100 ft:n korkeudessa

METAR: ESNO 241420Z 21006KT 9999 SCT011 02/02 Q0994

Aika: 15:59 (14:59 UTC)

Sääennuste

Tämä raportti tehtiin 29 minuuttia sitten, kello 14.30 UTC
Ennuste voimassa 24. päivästä klo 15 UTC - 24. päivään klo 23 UTC
Tuuli 8 kn etelästä/lounaasta
Näkyvyys 10 km tai enemmän
Hajanaisia pilviä 2000 ft:n korkeudessa
Todennäköisyys 40%
24. päivästä klo 15 UTC - 24. päivään klo 18 UTC
Hajonneita pilviä 1000 ft:n korkeudessa

TAF: ESNO 241430Z 2415/2423 20008KT 9999 SCT020 PROB40 2415/2418 BKN010

Säähavainnot ja -ennusteet yli 4000 lentoasemalta (METAR- ja TAF-raportit).

Käytössä olevat sääasemat on merkitty karttaan keltaisilla ja punaisilla pisteillä.

Aseta hiiri pisteen päälle nähdäksesi sääaseman nimen.

Klikkaa sitten nähdäksesi säähavainnot ja -ennusteet.

Kartan vaihtaminen: klikkaa mustalla rastilla varustettuja vihreitä pisteitä, niin voit zoomata sisään; viivalla varustettua vihreää pistettä, niin voit zoomata ulos tai vihreitä nuolia, niin pääset viereisille kartoille.


METAR-TAF: